Time;durP1;ratioP1;P1;durP2;ratioP2;P2;SDS_P1;SDS_P2;PMS_P1;PMS_P2;Temp;Humidity;BMP_temperature;BMP_pressure;BME280_temperature;BME280_humidity;BME280_pressure;Samples;Min_cycle;Max_cycle;Signal;HPM_P1;HPM_P2
2022/06/13 00:00:32;;;;;;;5.10;1.17;;;16.90;95.80;;;;;;4326640;28;10021645;-70
2022/06/13 00:02:59;;;;;;;4.50;1.65;;;16.80;96.30;;;;;;4973850;28;20414;-70
2022/06/13 00:05:26;;;;;;;6.35;2.08;;;16.80;96.80;;;;;;4975893;28;20030;-70
2022/06/13 00:07:51;;;;;;;6.07;1.55;;;16.80;95.80;;;;;;4977217;28;20054;-70
2022/06/13 00:10:17;;;;;;;7.55;1.83;;;16.80;96.10;;;;;;4973001;28;20026;-70
2022/06/13 00:12:44;;;;;;;5.38;1.80;;;16.80;96.70;;;;;;4977365;28;20046;-70
2022/06/13 00:15:13;;;;;;;7.22;2.03;;;16.80;96.50;;;;;;4977539;28;20015;-70
2022/06/13 00:17:38;;;;;;;8.55;2.00;;;16.80;96.80;;;;;;4974509;28;20407;-70
2022/06/13 00:20:06;;;;;;;5.40;1.92;;;16.70;97.20;;;;;;4969619;28;20023;-70
2022/06/13 00:22:31;;;;;;;6.43;1.80;;;16.70;97.70;;;;;;4970871;28;20038;-70
2022/06/13 00:24:57;;;;;;;4.78;1.40;;;16.60;98.30;;;;;;4976125;28;20057;-70
2022/06/13 00:27:23;;;;;;;5.18;1.65;;;16.50;98.40;;;;;;4971596;28;20031;-70
2022/06/13 00:29:50;;;;;;;3.22;1.48;;;16.40;99.00;;;;;;4970719;28;20062;-70
2022/06/13 00:32:16;;;;;;;2.38;1.38;;;16.30;99.60;;;;;;4980977;28;20065;-70
2022/06/13 00:34:42;;;;;;;3.42;1.63;;;16.30;99.80;;;;;;5020544;28;20513;-70
2022/06/13 00:37:08;;;;;;;3.65;1.40;;;16.20;99.90;;;;;;5023780;28;20667;-70
2022/06/13 00:39:33;;;;;;;5.07;1.60;;;16.10;99.90;;;;;;5024452;28;20025;-70
2022/06/13 00:41:59;;;;;;;2.97;1.48;;;16.10;99.90;;;;;;5020315;28;20033;-70
2022/06/13 00:44:27;;;;;;;4.47;1.30;;;16.00;99.90;;;;;;5015475;28;20032;-70
2022/06/13 00:46:53;;;;;;;4.03;1.40;;;16.00;99.90;;;;;;5017444;28;20496;-70
2022/06/13 00:49:20;;;;;;;4.03;1.70;;;15.90;99.90;;;;;;5025992;28;20049;-70
2022/06/13 00:51:50;;;;;;;4.68;1.52;;;15.90;99.90;;;;;;5022068;28;20030;-70
2022/06/13 00:54:19;;;;;;;6.35;1.40;;;15.80;99.90;;;;;;5019741;28;20026;-70
2022/06/13 00:56:47;;;;;;;3.58;1.40;;;15.80;99.90;;;;;;5024392;28;20037;-71
2022/06/13 00:59:17;;;;;;;2.65;1.40;;;15.70;99.90;;;;;;5023293;28;20033;-70
2022/06/13 01:01:43;;;;;;;4.22;1.58;;;15.70;99.90;;;;;;5013485;28;20090;-70
2022/06/13 01:04:10;;;;;;;4.53;1.73;;;15.70;99.90;;;;;;5024308;28;20120;-70
2022/06/13 01:06:40;;;;;;;4.68;1.52;;;15.60;99.90;;;;;;5028231;28;20137;-70
2022/06/13 01:09:08;;;;;;;3.85;1.50;;;15.50;99.90;;;;;;5012309;28;20038;-70
2022/06/13 01:11:36;;;;;;;3.55;1.50;;;15.50;99.90;;;;;;5021600;28;20029;-70
2022/06/13 01:14:24;;;;;;;4.38;1.52;;;15.40;99.90;;;;;;5027339;28;20079;-70
2022/06/13 01:17:20;;;;;;;4.18;1.35;;;15.30;99.90;;;;;;5016957;28;20025;-70
2022/06/13 01:19:45;;;;;;;5.20;1.45;;;15.30;99.90;;;;;;5011957;28;20034;-70
2022/06/13 01:22:14;;;;;;;3.90;1.20;;;15.30;99.90;;;;;;5026232;28;20084;-70
2022/06/13 01:25:22;;;;;;;4.70;1.30;;;15.20;99.90;;;;;;5025823;28;20450;-70
2022/06/13 01:28:00;;;;;;;5.45;1.60;;;15.20;99.90;;;;;;5024575;28;20109;-70
2022/06/13 01:31:07;;;;;;;5.38;1.40;;;15.20;99.90;;;;;;5023214;28;20021;-70
2022/06/13 01:33:47;;;;;;;3.47;1.50;;;15.20;99.90;;;;;;5024251;28;20044;-70
2022/06/13 01:36:28;;;;;;;3.22;1.40;;;15.20;99.90;;;;;;5020017;28;20052;-70
2022/06/13 01:39:17;;;;;;;6.88;1.75;;;15.20;99.90;;;;;;5024639;28;20053;-69
2022/06/13 01:41:55;;;;;;;3.47;1.52;;;15.10;99.90;;;;;;5024745;28;20100;-70
2022/06/13 01:44:35;;;;;;;5.43;1.60;;;15.10;99.90;;;;;;5022078;28;20040;-70
2022/06/13 01:47:12;;;;;;;3.83;1.30;;;15.00;99.90;;;;;;5025256;28;20482;-70
2022/06/13 01:49:53;;;;;;;2.75;1.35;;;14.90;99.90;;;;;;5023573;28;20453;-69
2022/06/13 01:52:32;;;;;;;5.88;1.70;;;14.90;99.90;;;;;;5009150;28;20034;-70
2022/06/13 01:55:19;;;;;;;5.75;1.75;;;14.80;99.90;;;;;;5011506;28;20777;-70
2022/06/13 01:58:08;;;;;;;4.38;1.77;;;14.70;99.90;;;;;;5017480;28;20044;-70
2022/06/13 02:00:35;;;;;;;5.47;1.85;;;14.60;99.90;;;;;;5023086;28;20033;-70
2022/06/13 02:03:26;;;;;;;8.23;2.28;;;14.70;99.90;;;;;;5023052;28;20022;-70
2022/06/13 02:06:09;;;;;;;4.60;1.70;;;14.60;99.90;;;;;;5008970;28;20034;-70
2022/06/13 02:08:41;;;;;;;4.18;1.77;;;14.50;99.90;;;;;;5017758;28;20028;-69
2022/06/13 02:11:26;;;;;;;3.55;1.55;;;14.50;99.90;;;;;;5021889;28;20030;-70
2022/06/13 02:14:01;;;;;;;3.92;1.60;;;14.50;99.90;;;;;;5014887;28;20022;-71
2022/06/13 02:16:33;;;;;;;4.30;1.60;;;14.50;99.90;;;;;;5025840;28;20018;-70
2022/06/13 02:19:23;;;;;;;3.28;1.50;;;14.40;99.90;;;;;;5025566;28;20033;-70
2022/06/13 02:22:05;;;;;;;5.22;1.80;;;14.40;99.90;;;;;;5026690;28;20025;-70
2022/06/13 02:24:45;;;;;;;3.30;1.30;;;14.40;99.90;;;;;;5008952;28;20375;-70
2022/06/13 02:27:13;;;;;;;6.68;1.60;;;14.30;99.90;;;;;;5024601;28;20057;-71
2022/06/13 02:29:48;;;;;;;4.35;1.60;;;14.30;99.90;;;;;;5015753;28;20039;-71
2022/06/13 02:32:20;;;;;;;4.22;2.05;;;14.30;99.90;;;;;;5021349;28;20033;-70
2022/06/13 02:35:21;;;;;;;6.45;1.90;;;14.40;99.90;;;;;;5011788;28;20038;-70
2022/06/13 02:38:00;;;;;;;4.28;1.90;;;14.30;99.90;;;;;;5012123;28;20837;-70
2022/06/13 02:40:32;;;;;;;3.15;1.40;;;14.20;99.90;;;;;;5011153;28;20037;-70
2022/06/13 02:43:35;;;;;;;4.75;1.60;;;14.20;99.90;;;;;;5013077;28;20052;-70
2022/06/13 02:46:11;;;;;;;2.67;1.67;;;14.20;99.90;;;;;;5001382;28;20048;-70
2022/06/13 02:48:46;;;;;;;5.00;1.48;;;14.10;99.90;;;;;;5010670;28;20033;-70
2022/06/13 02:51:22;;;;;;;3.53;1.63;;;14.10;99.90;;;;;;5012204;28;20084;-70
2022/06/13 02:53:58;;;;;;;3.85;1.95;;;14.10;99.90;;;;;;5014105;28;20536;-70
2022/06/13 02:56:35;;;;;;;3.90;1.75;;;14.10;99.90;;;;;;5011370;28;20042;-70
2022/06/13 02:59:23;;;;;;;3.72;1.75;;;14.10;99.90;;;;;;5015462;28;20041;-70
2022/06/13 03:01:54;;;;;;;4.53;1.80;;;14.10;99.90;;;;;;5008521;28;20187;-70
2022/06/13 03:04:41;;;;;;;4.32;1.90;;;14.00;99.90;;;;;;5022826;28;20112;-70
2022/06/13 03:07:16;;;;;;;5.22;1.90;;;14.00;99.90;;;;;;5021672;28;20037;-70
2022/06/13 03:09:51;;;;;;;5.20;2.10;;;13.90;99.90;;;;;;5011630;28;20029;-70
2022/06/13 03:12:33;;;;;;;7.50;1.95;;;13.90;99.90;;;;;;5019935;28;20034;-70
2022/06/13 03:15:13;;;;;;;8.15;2.17;;;14.00;99.90;;;;;;5027541;28;20041;-70
2022/06/13 03:17:53;;;;;;;3.63;2.00;;;13.90;99.90;;;;;;5017902;28;20021;-70
2022/06/13 03:20:28;;;;;;;4.53;2.17;;;14.00;99.90;;;;;;5010383;28;20112;-70
2022/06/13 03:22:59;;;;;;;5.55;1.98;;;14.00;99.90;;;;;;5022952;28;20117;-71
2022/06/13 03:25:39;;;;;;;6.68;2.28;;;14.00;99.90;;;;;;5023485;28;20076;-70
2022/06/13 03:28:14;;;;;;;6.45;2.65;;;13.90;99.90;;;;;;5022193;28;20040;-71
2022/06/13 03:30:46;;;;;;;6.30;2.63;;;14.00;99.90;;;;;;5029489;28;20052;-70
2022/06/13 03:36:11;;;;;;;7.15;2.55;;;14.00;99.90;;;;;;5020139;28;20048;-71
2022/06/13 03:38:49;;;;;;;3.00;1.92;;;14.00;99.90;;;;;;5029019;28;20399;-70
2022/06/13 03:41:19;;;;;;;6.13;2.30;;;14.00;99.90;;;;;;5026420;28;20100;-70
2022/06/13 03:43:55;;;;;;;4.35;2.05;;;13.90;99.90;;;;;;5016251;28;20032;-71
2022/06/13 03:46:24;;;;;;;4.93;2.17;;;13.90;99.90;;;;;;5030001;28;20029;-71
2022/06/13 03:49:03;;;;;;;5.22;2.28;;;13.80;99.90;;;;;;5020784;28;20464;-70
2022/06/13 03:51:38;;;;;;;4.93;2.10;;;13.90;99.90;;;;;;5021377;28;20134;-70
2022/06/13 03:54:14;;;;;;;7.90;2.45;;;13.80;99.90;;;;;;5020222;28;20482;-70
2022/06/13 03:56:56;;;;;;;7.93;2.72;;;13.70;99.90;;;;;;5028686;28;20195;-70
2022/06/13 03:59:46;;;;;;;5.78;2.70;;;13.80;99.90;;;;;;5020478;28;20029;-70
2022/06/13 04:02:16;;;;;;;7.63;2.67;;;13.80;99.90;;;;;;5021083;28;20108;-69
2022/06/13 04:04:46;;;;;;;6.15;2.53;;;13.80;99.90;;;;;;5023447;28;20040;-70
2022/06/13 04:07:12;;;;;;;9.35;3.30;;;13.90;99.90;;;;;;5027137;28;20079;-71
2022/06/13 04:09:43;;;;;;;7.22;2.70;;;13.90;99.90;;;;;;5020804;28;20029;-70
2022/06/13 04:12:35;;;;;;;10.32;3.20;;;14.00;99.90;;;;;;5020149;28;20578;-70
2022/06/13 04:15:28;;;;;;;6.57;2.83;;;14.10;99.90;;;;;;5020541;28;20137;-70
2022/06/13 04:18:27;;;;;;;6.32;2.42;;;14.60;99.90;;;;;;5015562;28;20102;-70
2022/06/13 04:21:35;;;;;;;6.50;2.55;;;16.40;99.90;;;;;;5024802;28;20048;-70
2022/06/13 04:24:06;;;;;;;8.23;2.55;;;17.60;99.90;;;;;;5012714;28;20041;-71
2022/06/13 04:27:01;;;;;;;6.35;2.30;;;18.00;99.90;;;;;;5015726;28;20029;-70
2022/06/13 04:29:43;;;;;;;7.50;2.70;;;18.00;99.90;;;;;;5026154;28;20036;-71
2022/06/13 04:32:18;;;;;;;7.85;2.90;;;17.80;99.90;;;;;;5027334;28;20485;-70
2022/06/13 04:34:46;;;;;;;7.43;2.60;;;17.70;99.90;;;;;;5017315;28;20080;-71
2022/06/13 04:37:13;;;;;;;6.47;2.78;;;17.40;99.90;;;;;;5022859;28;20029;-70
2022/06/13 04:39:42;;;;;;;6.72;2.42;;;17.30;99.90;;;;;;5012231;28;20034;-71
2022/06/13 04:42:09;;;;;;;7.53;2.63;;;17.00;99.90;;;;;;5013691;28;20254;-71
2022/06/13 04:44:36;;;;;;;8.68;2.80;;;16.90;99.90;;;;;;5016625;28;20036;-71
2022/06/13 04:47:05;;;;;;;8.88;2.65;;;16.80;99.90;;;;;;5025488;28;20410;-71
2022/06/13 04:49:53;;;;;;;9.88;2.58;;;16.70;99.90;;;;;;5025768;28;20456;-71
2022/06/13 04:52:29;;;;;;;7.80;2.53;;;16.40;99.90;;;;;;5019823;28;20035;-71
2022/06/13 04:55:01;;;;;;;5.90;2.03;;;16.30;99.90;;;;;;5024090;28;20053;-70
2022/06/13 04:57:28;;;;;;;7.40;2.20;;;16.10;99.90;;;;;;5027376;28;20108;-71
2022/06/13 04:59:54;;;;;;;7.30;2.80;;;16.00;99.90;;;;;;5015556;28;20041;-71
2022/06/13 05:02:41;;;;;;;8.05;2.42;;;15.90;99.90;;;;;;5021185;28;20247;-71
2022/06/13 05:05:41;;;;;;;6.15;2.30;;;15.80;99.90;;;;;;5024957;28;20037;-70
2022/06/13 05:08:20;;;;;;;11.88;2.60;;;15.60;99.90;;;;;;5024143;28;20549;-71
2022/06/13 05:10:49;;;;;;;8.57;2.65;;;15.50;99.90;;;;;;5007979;28;20035;-71
2022/06/13 05:13:16;;;;;;;5.45;2.30;;;15.50;99.90;;;;;;5020028;28;20501;-70
2022/06/13 05:15:46;;;;;;;7.40;2.67;;;15.50;99.90;;;;;;5010163;28;20030;-70
2022/06/13 05:18:25;;;;;;;5.82;2.20;;;15.50;99.90;;;;;;5022722;28;20400;-70
2022/06/13 05:21:09;;;;;;;5.82;2.30;;;15.40;99.90;;;;;;5025963;28;20029;-70
2022/06/13 05:23:52;;;;;;;4.93;2.35;;;15.40;99.90;;;;;;5022059;28;20170;-70
2022/06/13 05:26:18;;;;;;;5.55;2.75;;;15.40;99.90;;;;;;5018731;28;20811;-70
2022/06/13 05:28:44;;;;;;;8.60;2.63;;;15.30;99.90;;;;;;5019430;28;20033;-70
2022/06/13 05:31:18;;;;;;;6.18;2.85;;;15.20;99.90;;;;;;5023071;28;20449;-70
2022/06/13 05:33:44;;;;;;;7.78;2.90;;;15.40;99.90;;;;;;5024270;28;20743;-70
2022/06/13 05:36:15;;;;;;;7.38;3.05;;;15.80;99.90;;;;;;5018331;28;20167;-69
2022/06/13 05:38:47;;;;;;;7.38;3.20;;;16.20;99.90;;;;;;5015844;28;20509;-70
2022/06/13 05:41:13;;;;;;;6.63;2.72;;;16.50;99.90;;;;;;5022083;28;20033;-70
2022/06/13 05:43:39;;;;;;;7.10;2.83;;;16.70;99.90;;;;;;5018209;28;20788;-70
2022/06/13 05:46:07;;;;;;;7.85;3.17;;;17.00;99.90;;;;;;5017829;28;20371;-70
2022/06/13 05:48:33;;;;;;;4.88;2.28;;;17.10;99.90;;;;;;5018645;28;20060;-70
2022/06/13 05:50:58;;;;;;;7.00;2.45;;;17.10;99.90;;;;;;5016539;28;20029;-70
2022/06/13 05:53:26;;;;;;;10.68;3.08;;;17.10;99.90;;;;;;5016491;28;20456;-70
2022/06/13 05:55:57;;;;;;;7.50;2.92;;;17.00;99.90;;;;;;5027182;28;20481;-70
2022/06/13 05:58:25;;;;;;;6.45;2.58;;;17.00;99.90;;;;;;5017474;28;20025;-70
2022/06/13 06:00:54;;;;;;;14.35;3.33;;;17.20;99.90;;;;;;5023994;28;20026;-70
2022/06/13 06:03:19;;;;;;;9.00;3.15;;;17.40;99.90;;;;;;5028441;28;20039;-70
2022/06/13 06:05:46;;;;;;;10.45;3.13;;;17.70;99.90;;;;;;5020672;28;20021;-71
2022/06/13 06:08:33;;;;;;;9.70;3.08;;;17.90;99.90;;;;;;5007246;28;20065;-70
2022/06/13 06:10:59;;;;;;;10.45;3.45;;;18.20;99.90;;;;;;5023375;28;20554;-70
2022/06/13 06:13:27;;;;;;;7.72;2.85;;;18.50;99.90;;;;;;5027171;28;20033;-70
2022/06/13 06:15:53;;;;;;;8.20;3.30;;;18.60;99.90;;;;;;5024900;28;20036;-70
2022/06/13 06:18:20;;;;;;;8.85;2.90;;;18.70;99.90;;;;;;5020467;28;20048;-70
2022/06/13 06:20:45;;;;;;;10.85;3.15;;;18.80;99.90;;;;;;5025611;28;20029;-70
2022/06/13 06:23:14;;;;;;;12.68;3.13;;;18.90;99.90;;;;;;5016720;28;20516;-69
2022/06/13 06:25:42;;;;;;;9.73;2.60;;;19.00;99.90;;;;;;5007659;28;20026;-69
2022/06/13 06:28:09;;;;;;;9.27;3.00;;;19.10;99.90;;;;;;5022967;28;20038;-69
2022/06/13 06:30:35;;;;;;;12.77;2.80;;;19.20;99.90;;;;;;5024132;28;20369;-69
2022/06/13 06:33:00;;;;;;;6.18;2.88;;;19.40;99.90;;;;;;5026990;28;20026;-69
2022/06/13 06:35:28;;;;;;;9.57;2.72;;;19.70;99.90;;;;;;5020552;28;20228;-69
2022/06/13 06:37:55;;;;;;;8.13;2.78;;;;;;;;;;5013736;28;20537;-69
2022/06/13 06:40:24;;;;;;;7.75;2.63;;;;;;;;;;5015856;28;20022;-70
2022/06/13 06:42:50;;;;;;;8.38;2.80;;;;;;;;;;5024469;28;20018;-70
2022/06/13 06:45:17;;;;;;;6.57;3.03;;;20.30;99.90;;;;;;5013228;28;20041;-70
2022/06/13 06:47:43;;;;;;;7.93;2.50;;;20.60;99.90;;;;;;5021546;28;20391;-70
2022/06/13 06:50:22;;;;;;;6.63;2.47;;;20.80;99.90;;;;;;5023025;28;20033;-69
2022/06/13 06:52:48;;;;;;;7.05;2.33;;;20.80;99.90;;;;;;5021127;28;20025;-69
2022/06/13 07:00:49;;;;;;;4.82;2.00;;;20.60;99.90;;;;;;5023781;28;20085;-70
2022/06/13 07:03:15;;;;;;;7.68;2.35;;;;;;;;;;5029405;28;20140;-70
2022/06/13 07:05:41;;;;;;;7.07;2.20;;;20.40;95.40;;;;;;5029728;28;20079;-70
2022/06/13 07:08:07;;;;;;;10.90;2.70;;;20.10;96.10;;;;;;5022613;28;20017;-70
2022/06/13 07:10:33;;;;;;;6.63;2.60;;;19.90;97.00;;;;;;5026430;28;20087;-69
2022/06/13 07:12:59;;;;;;;13.82;2.67;;;19.60;97.90;;;;;;5034066;28;20112;-69
2022/06/13 07:15:25;;;;;;;8.82;2.22;;;19.50;98.50;;;;;;5015541;28;20592;-70
2022/06/13 07:17:51;;;;;;;9.02;2.33;;;19.40;98.80;;;;;;5019751;28;20022;-70
2022/06/13 07:20:17;;;;;;;11.88;2.80;;;19.40;99.00;;;;;;5026908;28;20030;-70
2022/06/13 07:22:51;;;;;;;10.27;2.85;;;19.30;99.40;;;;;;5030650;28;20405;-69
2022/06/13 07:25:20;;;;;;;11.00;2.83;;;19.10;99.30;;;;;;5027994;28;20026;-69
2022/06/13 07:27:46;;;;;;;5.90;2.42;;;19.00;99.90;;;;;;5027624;28;20068;-70
2022/06/13 07:30:14;;;;;;;5.63;2.08;;;18.90;99.90;;;;;;5026675;28;20057;-70
2022/06/13 07:32:40;;;;;;;9.80;2.42;;;19.00;99.90;;;;;;5013976;28;20104;-69
2022/06/13 07:35:07;;;;;;;9.95;2.60;;;18.90;99.90;;;;;;5028371;28;20053;-69
2022/06/13 07:40:18;;;;;;;9.48;2.88;;;18.80;99.80;;;;;;5027533;28;20045;-69
2022/06/13 07:42:47;;;;;;;6.57;2.75;;;18.70;99.80;;;;;;5029539;28;20033;-69
2022/06/13 07:45:22;;;;;;;8.93;2.55;;;18.70;99.90;;;;;;5027238;28;20474;-69
2022/06/13 07:47:49;;;;;;;11.77;3.05;;;19.00;99.90;;;;;;5027073;28;20137;-69
2022/06/13 07:50:17;;;;;;;10.20;2.95;;;19.20;99.90;;;;;;5028110;28;20030;-69
2022/06/13 07:52:42;;;;;;;7.32;2.28;;;19.20;99.00;;;;;;5013740;28;20030;-69
2022/06/13 07:55:09;;;;;;;10.45;3.05;;;19.10;99.30;;;;;;5025692;28;20075;-69
2022/06/13 07:57:35;;;;;;;7.65;2.80;;;19.10;99.90;;;;;;5032136;28;20033;-70
2022/06/13 08:00:02;;;;;;;9.18;2.35;;;18.90;99.90;;;;;;5026117;28;20104;-69
2022/06/13 08:02:31;;;;;;;11.00;3.17;;;18.80;99.90;;;;;;5023485;28;20116;-69
2022/06/13 08:04:57;;;;;;;8.82;2.45;;;18.70;99.90;;;;;;5021513;28;20398;-69
2022/06/13 08:07:22;;;;;;;6.90;2.65;;;18.50;99.90;;;;;;5028074;28;20192;-70
2022/06/13 08:09:48;;;;;;;5.93;2.38;;;18.50;99.90;;;;;;5014845;28;20040;-69
2022/06/13 08:12:16;;;;;;;9.35;2.50;;;18.50;99.90;;;;;;5026869;28;20033;-70
2022/06/13 08:14:45;;;;;;;12.20;3.25;;;18.50;99.90;;;;;;5024511;28;20269;-69
2022/06/13 08:17:16;;;;;;;8.05;2.65;;;18.50;99.90;;;;;;5023459;28;20061;-69
2022/06/13 08:19:41;;;;;;;11.30;3.38;;;18.60;99.90;;;;;;5017006;28;20436;-70
2022/06/13 08:22:07;;;;;;;5.60;2.60;;;18.60;99.90;;;;;;5025455;28;20037;-70
2022/06/13 08:24:33;;;;;;;8.20;3.00;;;18.60;99.90;;;;;;5026824;28;20044;-70
2022/06/13 08:26:59;;;;;;;8.93;2.78;;;18.50;99.90;;;;;;5016437;28;20520;-69
2022/06/13 08:29:25;;;;;;;9.48;3.00;;;18.50;99.90;;;;;;5024136;28;20072;-70
2022/06/13 08:31:51;;;;;;;8.70;3.13;;;18.40;99.90;;;;;;5027215;28;20473;-70
2022/06/13 08:34:17;;;;;;;8.15;3.55;;;18.40;99.90;;;;;;5018828;28;20049;-70
2022/06/13 08:36:43;;;;;;;11.40;3.85;;;18.40;99.90;;;;;;5021365;28;20448;-70
2022/06/13 08:39:08;;;;;;;8.77;3.25;;;18.30;99.90;;;;;;5016272;28;20030;-70
2022/06/13 08:41:58;;;;;;;9.20;3.42;;;18.20;99.90;;;;;;5012140;28;20124;-76
2022/06/13 08:44:52;;;;;;;8.48;2.97;;;18.10;99.90;;;;;;5023061;28;20108;-76
2022/06/13 08:47:20;;;;;;;;;;;17.80;99.90;;;;;;5022350;28;20717;-75
2022/06/13 08:49:59;;;;;;;8.35;2.63;;;17.60;99.90;;;;;;5023325;28;19924;-76
2022/06/13 08:52:32;;;;;;;8.20;2.65;;;17.50;99.90;;;;;;5024182;28;20093;-79
2022/06/13 08:55:12;;;;;;;;;;;17.40;99.90;;;;;;5027028;28;20030;-74
2022/06/13 08:57:55;;;;;;;8.82;2.70;;;17.30;99.90;;;;;;5027117;28;19916;-74
2022/06/13 09:00:23;;;;;;;;;;;17.30;99.90;;;;;;5011571;28;20033;-75
2022/06/13 09:03:00;;;;;;;9.63;3.13;;;17.50;99.90;;;;;;5013261;28;19909;-76
2022/06/13 09:05:56;;;;;;;7.20;2.38;;;17.60;99.90;;;;;;5020424;28;20049;-76
2022/06/13 09:08:37;;;;;;;8.73;2.30;;;17.70;99.90;;;;;;5022595;28;20029;-81
2022/06/13 09:11:14;;;;;;;6.03;2.03;;;17.70;99.90;;;;;;5010510;28;20087;-77
2022/06/13 09:13:47;;;;;;;5.95;2.40;;;17.70;99.90;;;;;;5015445;28;20037;-78
2022/06/13 09:16:27;;;;;;;7.15;2.40;;;17.70;99.90;;;;;;5009910;28;20033;-77
2022/06/13 09:19:15;;;;;;;4.95;2.28;;;17.70;99.90;;;;;;5019655;28;20124;-77
2022/06/13 09:22:08;;;;;;;5.30;2.10;;;17.80;99.90;;;;;;5020393;28;20032;-77
2022/06/13 09:24:44;;;;;;;3.85;1.55;;;18.00;99.90;;;;;;5021515;28;20084;-81
2022/06/13 09:27:15;;;;;;;6.43;1.67;;;18.40;99.90;;;;;;5025108;28;20045;-80
2022/06/13 09:30:04;;;;;;;4.50;1.90;;;18.60;99.90;;;;;;5017145;28;20057;-82
2022/06/13 09:32:36;;;;;;;3.83;1.77;;;18.80;99.90;;;;;;5016745;28;20453;-80
2022/06/13 09:35:11;;;;;;;3.00;1.50;;;19.10;99.90;;;;;;5015632;28;20536;-79
2022/06/13 09:37:48;;;;;;;3.45;1.50;;;;;;;;;;5008271;28;20111;-79
2022/06/13 09:40:19;;;;;;;6.82;2.22;;;19.50;99.90;;;;;;5011702;28;20056;-79
2022/06/13 09:42:53;;;;;;;3.33;2.03;;;;;;;;;;5024030;28;20037;-80
2022/06/13 09:45:28;;;;;;;5.47;3.17;;;19.40;99.90;;;;;;5022639;28;20120;-80
2022/06/13 09:48:29;;;;;;;5.85;2.17;;;19.70;99.90;;;;;;5017459;28;20481;-80
2022/06/13 09:51:10;;;;;;;7.32;1.50;;;19.80;99.90;;;;;;5011033;28;20029;-80
2022/06/13 09:53:50;;;;;;;4.80;1.60;;;19.90;99.90;;;;;;5022030;28;20025;-80
2022/06/13 09:56:32;;;;;;;4.82;1.45;;;20.00;99.90;;;;;;5021015;28;20421;-80
2022/06/13 09:59:19;;;;;;;3.67;1.42;;;20.10;99.90;;;;;;5011690;28;20222;-80
2022/06/13 10:02:23;;;;;;;4.47;1.58;;;20.30;99.90;;;;;;5026660;28;20037;-80
2022/06/13 10:04:54;;;;;;;2.33;1.23;;;20.30;99.90;;;;;;4942979;28;20046;-80
2022/06/13 10:07:27;;;;;;;2.67;1.20;;;20.50;99.90;;;;;;5011573;28;20424;-80
2022/06/13 10:10:10;;;;;;;2.90;1.40;;;20.90;98.50;;;;;;5016927;28;20057;-80
2022/06/13 10:12:47;;;;;;;;;;;21.00;98.10;;;;;;5017314;28;20030;-80
2022/06/13 10:15:40;;;;;;;2.38;1.27;;;21.30;96.10;;;;;;5018659;28;19916;-80
2022/06/13 10:18:32;;;;;;;3.10;1.20;;;21.40;95.90;;;;;;5011553;28;20038;-80
2022/06/13 10:21:23;;;;;;;4.53;1.73;;;21.50;94.80;;;;;;5005855;28;20045;-80
2022/06/13 10:24:13;;;;;;;3.80;1.50;;;21.40;93.40;;;;;;5018673;28;20113;-80
2022/06/13 10:26:58;;;;;;;4.45;1.60;;;21.20;94.30;;;;;;5017585;28;20087;-80
2022/06/13 10:29:52;;;;;;;2.40;1.30;;;21.10;94.60;;;;;;5021924;28;20031;-80
2022/06/13 10:32:45;;;;;;;2.90;1.40;;;21.00;94.00;;;;;;5020439;28;20049;-80
2022/06/13 10:35:21;;;;;;;3.83;1.75;;;21.10;93.30;;;;;;4995351;28;20041;-82
2022/06/13 10:38:01;;;;;;;5.32;1.95;;;21.30;95.20;;;;;;5006915;28;20118;-81
2022/06/13 10:40:28;;;;;;;4.13;1.90;;;21.50;95.70;;;;;;5005809;28;20054;-83
2022/06/13 10:42:53;;;;;;;4.80;1.92;;;21.70;95.00;;;;;;5000857;28;20125;-84
2022/06/13 10:45:19;;;;;;;4.82;1.85;;;22.00;95.20;;;;;;4998362;28;20105;-84
2022/06/13 10:48:08;;;;;;;4.82;2.00;;;22.10;94.00;;;;;;5008440;28;20030;-84
2022/06/13 10:50:44;;;;;;;4.35;1.60;;;21.80;93.00;;;;;;4997760;28;20022;-82
2022/06/13 10:53:22;;;;;;;3.17;1.60;;;21.60;92.80;;;;;;4992700;28;20101;-82
2022/06/13 10:55:50;;;;;;;3.55;1.67;;;21.20;92.30;;;;;;5001819;28;20037;-80
2022/06/13 10:58:25;;;;;;;4.10;1.83;;;21.00;93.30;;;;;;5005767;28;20045;-81
2022/06/13 11:01:16;;;;;;;6.72;1.95;;;20.80;94.20;;;;;;5008942;28;20232;-81
2022/06/13 11:04:03;;;;;;;4.47;2.00;;;20.50;94.40;;;;;;5007150;28;20157;-80
2022/06/13 11:06:42;;;;;;;5.93;2.30;;;20.20;95.20;;;;;;5008411;28;20276;-81
2022/06/13 11:09:38;;;;;;;5.70;2.33;;;20.00;95.30;;;;;;4994680;28;20112;-79
2022/06/13 11:12:28;;;;;;;3.92;1.83;;;19.90;96.30;;;;;;4996167;28;20054;-81
2022/06/13 11:23:46;;;;;;;4.80;2.17;;;21.60;92.90;;;;;;5003214;28;20127;-79
2022/06/13 11:28:58;;;;;;;7.43;2.00;;;21.50;91.30;;;;;;5007084;28;20513;-78
2022/06/13 11:31:26;;;;;;;5.07;2.00;;;21.80;90.70;;;;;;5008281;28;20215;-79
2022/06/13 11:33:53;;;;;;;5.05;1.90;;;21.80;85.90;;;;;;5011411;28;20507;-79
2022/06/13 11:36:28;;;;;;;5.65;1.88;;;21.70;83.80;;;;;;5022415;28;20398;-79
2022/06/13 11:38:59;;;;;;;9.25;2.17;;;21.80;83.40;;;;;;5017624;28;20033;-78
2022/06/13 11:41:40;;;;;;;5.75;1.80;;;21.90;83.60;;;;;;5026536;28;20030;-79
2022/06/13 11:44:13;;;;;;;4.38;1.75;;;22.10;81.60;;;;;;5024469;28;20038;-78
2022/06/13 11:46:53;;;;;;;6.53;2.05;;;22.20;82.30;;;;;;5018160;28;20025;-79
2022/06/13 11:49:47;;;;;;;4.80;2.03;;;22.20;77.30;;;;;;5012563;28;20513;-78
2022/06/13 11:52:13;;;;;;;6.18;1.85;;;22.10;75.80;;;;;;5012344;28;20490;-78
2022/06/13 11:54:40;;;;;;;7.18;1.80;;;22.10;76.20;;;;;;5027037;28;20393;-78
2022/06/13 11:57:18;;;;;;;6.50;2.45;;;22.10;75.00;;;;;;5017695;28;20393;-78
2022/06/13 11:59:49;;;;;;;5.63;2.30;;;22.20;72.80;;;;;;5012339;28;20034;-79
2022/06/13 12:02:23;;;;;;;5.10;1.88;;;22.10;71.00;;;;;;5014324;28;20034;-78
2022/06/13 12:04:53;;;;;;;5.80;2.22;;;22.20;72.40;;;;;;5017053;28;20026;-78
2022/06/13 12:07:26;;;;;;;4.68;1.95;;;22.30;71.40;;;;;;5019880;28;20104;-78
2022/06/13 12:09:55;;;;;;;6.55;2.20;;;22.20;77.50;;;;;;5016591;28;20553;-78
2022/06/13 12:12:22;;;;;;;5.50;1.90;;;22.00;80.70;;;;;;5032082;28;20029;-78
2022/06/13 12:14:48;;;;;;;6.03;2.05;;;21.80;82.60;;;;;;5020133;28;20026;-78
2022/06/13 12:17:24;;;;;;;6.63;2.10;;;21.70;82.80;;;;;;5020688;28;20489;-78
2022/06/13 12:20:02;;;;;;;8.31;1.94;;;21.70;84.40;;;;;;4673296;28;10001355;-77
2022/06/13 12:22:50;;;;;;;5.32;2.05;;;21.80;81.60;;;;;;5012405;28;20029;-77
2022/06/13 12:25:40;;;;;;;7.53;2.50;;;22.10;78.30;;;;;;5018510;28;20447;-77
2022/06/13 12:28:14;;;;;;;8.45;2.47;;;22.20;76.70;;;;;;5025236;28;20345;-77
2022/06/13 12:31:03;;;;;;;5.50;2.25;;;22.30;76.00;;;;;;5020505;28;20120;-77
2022/06/13 12:33:50;;;;;;;6.32;2.45;;;22.50;77.30;;;;;;5004907;28;20072;-77
2022/06/13 12:36:56;;;;;;;7.10;2.75;;;22.70;75.60;;;;;;5012866;28;20021;-77
2022/06/13 12:39:30;;;;;;;7.13;2.58;;;22.80;68.60;;;;;;5015227;28;20034;-79
2022/06/13 12:42:20;;;;;;;6.38;2.38;;;23.20;66.50;;;;;;5007306;28;20044;-78
2022/06/13 12:44:58;;;;;;;7.47;2.60;;;23.10;67.10;;;;;;5018468;28;20445;-78
2022/06/13 12:47:39;;;;;;;5.82;2.30;;;23.20;67.00;;;;;;5014042;28;20456;-78
2022/06/13 12:50:20;;;;;;;6.60;2.42;;;22.80;68.70;;;;;;5020456;28;20029;-79
2022/06/13 12:53:13;;;;;;;5.65;2.40;;;22.40;69.30;;;;;;5018132;28;20033;-78
2022/06/13 12:55:50;;;;;;;;;;;22.40;70.40;;;;;;5023192;28;20171;-78
2022/06/13 12:58:15;;;;;;;7.65;2.80;;;22.40;70.00;;;;;;5009946;28;20195;-78
2022/06/13 13:00:49;;;;;;;6.70;2.22;;;22.60;70.30;;;;;;5005861;28;20386;-78
2022/06/13 13:03:27;;;;;;;6.22;2.58;;;23.10;71.20;;;;;;5004869;28;20036;-78
2022/06/13 13:06:04;;;;;;;6.68;2.55;;;23.50;69.40;;;;;;5015704;28;20136;-78
2022/06/13 13:08:36;;;;;;;6.82;2.50;;;24.00;65.40;;;;;;5021075;28;20370;-78
2022/06/13 13:11:46;;;;;;;7.35;2.25;;;24.00;64.70;;;;;;5017305;28;20025;-78
2022/06/13 13:14:44;;;;;;;5.28;2.33;;;24.20;63.60;;;;;;5006250;28;20508;-77
2022/06/13 13:17:28;;;;;;;5.63;2.28;;;24.50;62.30;;;;;;4998430;28;20072;-76
2022/06/13 13:20:01;;;;;;;7.53;2.13;;;24.60;55.60;;;;;;5001242;28;20466;-79
2022/06/13 13:22:42;;;;;;;6.90;2.10;;;24.60;54.70;;;;;;5013118;28;20529;-79
2022/06/13 13:25:25;;;;;;;7.53;2.25;;;24.60;53.70;;;;;;5012618;28;20064;-79
2022/06/13 13:28:14;;;;;;;6.03;2.05;;;24.50;55.10;;;;;;5005368;28;20679;-79
2022/06/13 13:30:53;;;;;;;4.43;2.10;;;24.80;55.70;;;;;;5004833;28;20030;-79
2022/06/13 13:33:21;;;;;;;5.10;2.25;;;24.90;55.20;;;;;;5009147;28;20576;-79
2022/06/13 13:35:54;;;;;;;6.90;2.50;;;24.80;55.00;;;;;;5004377;28;20022;-79
2022/06/13 13:38:27;;;;;;;4.50;1.80;;;24.30;54.30;;;;;;5014649;28;20499;-79
2022/06/13 13:41:02;;;;;;;6.90;2.10;;;23.80;56.30;;;;;;5009764;28;20033;-79
2022/06/13 13:43:39;;;;;;;5.50;2.33;;;23.20;58.10;;;;;;5022518;28;20026;-77
2022/06/13 13:46:24;;;;;;;11.50;2.85;;;22.60;60.50;;;;;;5020439;28;20237;-79
2022/06/13 13:49:16;;;;;;;8.57;2.60;;;21.90;70.90;;;;;;5004279;28;20424;-79
2022/06/13 13:51:47;;;;;;;5.07;1.80;;;21.10;71.60;;;;;;5022632;28;20604;-80